Terminal Aerodrome Forecast
Issued by NWS

Home | Current Version | Previous Version | Graphics & Text | Print | Product List | Glossary On
Versions: 1 2 3 4 5 6 7 8 9 10 11 12 13 14 15 16 17 18 19 20
000
FTUS43 KMPX 221100
TAFRNH
TAF
KRNH 221136Z 2212/2312 00000KT 2SM BR OVC002
     FM221500 36004KT 5SM BR OVC008
     FM221700 36004KT P6SM BKN014
     FM222000 02004KT P6SM SCT025
     FM230600 05003KT 2SM BR FEW003
     FM230900 06002KT 1/2SM FG VV002=

USA.gov is the U.S. government's official web portal to all federal, state and local government web resources and services.